sensor_id;sensor_type;location;lat;lon;timestamp;P1;durP1;ratioP1;P2;durP2;ratioP2
13057;SDS011;6595;49.578;11.012;2024-03-02T00:00:23;36.1;;;16.4;;
13057;SDS011;6595;49.578;11.012;2024-03-02T00:02:23;34.1;;;16.7;;
13057;SDS011;6595;49.578;11.012;2024-03-02T00:04:24;34.2;;;16.1;;
13057;SDS011;6595;49.578;11.012;2024-03-02T00:06:23;35.0;;;15.8;;
13057;SDS011;6595;49.578;11.012;2024-03-02T00:08:25;35.0;;;15.8;;
13057;SDS011;6595;49.578;11.012;2024-03-02T00:10:25;35.4;;;16.9;;
13057;SDS011;6595;49.578;11.012;2024-03-02T00:12:23;34.6;;;17.6;;
13057;SDS011;6595;49.578;11.012;2024-03-02T00:14:24;35.3;;;17.4;;
13057;SDS011;6595;49.578;11.012;2024-03-02T00:16:23;35.4;;;17.5;;
13057;SDS011;6595;49.578;11.012;2024-03-02T00:18:25;35.4;;;17.5;;
13057;SDS011;6595;49.578;11.012;2024-03-02T00:20:24;35.0;;;17.2;;
13057;SDS011;6595;49.578;11.012;2024-03-02T00:22:24;35.0;;;17.2;;
13057;SDS011;6595;49.578;11.012;2024-03-02T00:24:24;35.0;;;16.7;;
13057;SDS011;6595;49.578;11.012;2024-03-02T00:26:23;35.0;;;16.7;;
13057;SDS011;6595;49.578;11.012;2024-03-02T00:28:24;36.6;;;16.8;;
13057;SDS011;6595;49.578;11.012;2024-03-02T00:30:42;35.4;;;16.6;;
13057;SDS011;6595;49.578;11.012;2024-03-02T00:32:23;34.7;;;16.2;;
13057;SDS011;6595;49.578;11.012;2024-03-02T00:34:23;33.6;;;16.6;;
13057;SDS011;6595;49.578;11.012;2024-03-02T00:36:24;37.5;;;17.1;;
13057;SDS011;6595;49.578;11.012;2024-03-02T00:38:23;37.5;;;17.1;;
13057;SDS011;6595;49.578;11.012;2024-03-02T00:40:25;37.5;;;17.1;;
13057;SDS011;6595;49.578;11.012;2024-03-02T00:42:23;37.6;;;17.2;;
13057;SDS011;6595;49.578;11.012;2024-03-02T00:44:23;33.9;;;16.9;;
13057;SDS011;6595;49.578;11.012;2024-03-02T00:46:23;33.9;;;16.9;;
13057;SDS011;6595;49.578;11.012;2024-03-02T00:48:23;38.4;;;17.2;;
13057;SDS011;6595;49.578;11.012;2024-03-02T00:50:23;37.1;;;17.0;;
13057;SDS011;6595;49.578;11.012;2024-03-02T00:52:24;39.1;;;17.8;;
13057;SDS011;6595;49.578;11.012;2024-03-02T00:54:25;41.6;;;17.7;;
13057;SDS011;6595;49.578;11.012;2024-03-02T00:56:23;41.6;;;17.7;;
13057;SDS011;6595;49.578;11.012;2024-03-02T00:58:23;43.2;;;18.7;;
13057;SDS011;6595;49.578;11.012;2024-03-02T01:00:24;40.9;;;17.9;;
13057;SDS011;6595;49.578;11.012;2024-03-02T01:02:23;36.2;;;16.5;;
13057;SDS011;6595;49.578;11.012;2024-03-02T01:04:23;39.0;;;18.4;;
13057;SDS011;6595;49.578;11.012;2024-03-02T01:06:24;39.0;;;18.4;;
13057;SDS011;6595;49.578;11.012;2024-03-02T01:08:23;42.6;;;19.1;;
13057;SDS011;6595;49.578;11.012;2024-03-02T01:10:23;39.4;;;18.4;;
13057;SDS011;6595;49.578;11.012;2024-03-02T01:12:23;41.0;;;18.7;;
13057;SDS011;6595;49.578;11.012;2024-03-02T01:14:23;41.0;;;18.7;;
13057;SDS011;6595;49.578;11.012;2024-03-02T01:16:23;39.5;;;19.4;;
13057;SDS011;6595;49.578;11.012;2024-03-02T01:18:24;42.9;;;19.1;;
13057;SDS011;6595;49.578;11.012;2024-03-02T01:20:23;41.7;;;19.3;;
13057;SDS011;6595;49.578;11.012;2024-03-02T01:22:23;39.7;;;18.9;;
13057;SDS011;6595;49.578;11.012;2024-03-02T01:24:24;39.7;;;18.9;;
13057;SDS011;6595;49.578;11.012;2024-03-02T01:26:23;43.3;;;19.6;;
13057;SDS011;6595;49.578;11.012;2024-03-02T01:28:23;40.0;;;18.9;;
13057;SDS011;6595;49.578;11.012;2024-03-02T01:30:24;40.0;;;18.9;;
13057;SDS011;6595;49.578;11.012;2024-03-02T01:32:23;46.3;;;20.4;;
13057;SDS011;6595;49.578;11.012;2024-03-02T01:34:24;39.6;;;20.1;;
13057;SDS011;6595;49.578;11.012;2024-03-02T01:36:24;39.9;;;19.5;;
13057;SDS011;6595;49.578;11.012;2024-03-02T01:38:23;39.9;;;19.5;;
13057;SDS011;6595;49.578;11.012;2024-03-02T01:40:23;41.0;;;19.3;;
13057;SDS011;6595;49.578;11.012;2024-03-02T01:42:23;43.1;;;19.6;;
13057;SDS011;6595;49.578;11.012;2024-03-02T01:44:23;43.1;;;19.6;;
13057;SDS011;6595;49.578;11.012;2024-03-02T01:46:23;42.2;;;20.2;;
13057;SDS011;6595;49.578;11.012;2024-03-02T01:48:24;42.7;;;19.9;;
13057;SDS011;6595;49.578;11.012;2024-03-02T01:50:25;47.7;;;19.6;;
13057;SDS011;6595;49.578;11.012;2024-03-02T01:52:24;47.7;;;19.6;;
13057;SDS011;6595;49.578;11.012;2024-03-02T01:54:24;44.6;;;19.9;;
13057;SDS011;6595;49.578;11.012;2024-03-02T01:56:23;44.2;;;20.0;;
13057;SDS011;6595;49.578;11.012;2024-03-02T01:58:24;42.0;;;19.5;;
13057;SDS011;6595;49.578;11.012;2024-03-02T02:00:23;42.0;;;19.5;;
13057;SDS011;6595;49.578;11.012;2024-03-02T02:02:23;46.8;;;20.4;;
13057;SDS011;6595;49.578;11.012;2024-03-02T02:04:23;46.8;;;20.4;;
13057;SDS011;6595;49.578;11.012;2024-03-02T02:06:24;40.5;;;19.5;;
13057;SDS011;6595;49.578;11.012;2024-03-02T02:08:23;41.6;;;19.9;;
13057;SDS011;6595;49.578;11.012;2024-03-02T02:10:23;41.6;;;19.9;;
13057;SDS011;6595;49.578;11.012;2024-03-02T02:12:23;46.2;;;20.4;;
13057;SDS011;6595;49.578;11.012;2024-03-02T02:14:24;46.2;;;20.4;;
13057;SDS011;6595;49.578;11.012;2024-03-02T02:16:23;39.2;;;19.1;;
13057;SDS011;6595;49.578;11.012;2024-03-02T02:18:23;40.4;;;18.5;;
13057;SDS011;6595;49.578;11.012;2024-03-02T02:20:23;42.6;;;19.5;;
13057;SDS011;6595;49.578;11.012;2024-03-02T02:22:24;42.6;;;19.5;;
13057;SDS011;6595;49.578;11.012;2024-03-02T02:24:24;39.4;;;18.0;;
13057;SDS011;6595;49.578;11.012;2024-03-02T02:26:23;42.7;;;19.0;;
13057;SDS011;6595;49.578;11.012;2024-03-02T02:28:23;37.4;;;17.6;;
13057;SDS011;6595;49.578;11.012;2024-03-02T02:30:24;38.1;;;18.2;;
13057;SDS011;6595;49.578;11.012;2024-03-02T02:32:23;38.1;;;18.2;;
13057;SDS011;6595;49.578;11.012;2024-03-02T02:34:23;41.5;;;18.3;;
13057;SDS011;6595;49.578;11.012;2024-03-02T02:36:23;37.6;;;17.5;;
13057;SDS011;6595;49.578;11.012;2024-03-02T02:38:23;41.8;;;18.9;;
13057;SDS011;6595;49.578;11.012;2024-03-02T02:40:23;40.2;;;19.1;;
13057;SDS011;6595;49.578;11.012;2024-03-02T02:42:23;40.2;;;19.1;;
13057;SDS011;6595;49.578;11.012;2024-03-02T02:44:23;41.6;;;19.0;;
13057;SDS011;6595;49.578;11.012;2024-03-02T02:46:23;42.9;;;19.5;;
13057;SDS011;6595;49.578;11.012;2024-03-02T02:48:23;39.1;;;18.1;;
13057;SDS011;6595;49.578;11.012;2024-03-02T02:50:23;39.1;;;18.1;;
13057;SDS011;6595;49.578;11.012;2024-03-02T02:52:24;37.6;;;18.1;;
13057;SDS011;6595;49.578;11.012;2024-03-02T02:54:24;42.4;;;19.4;;
13057;SDS011;6595;49.578;11.012;2024-03-02T02:56:23;42.4;;;19.4;;
13057;SDS011;6595;49.578;11.012;2024-03-02T02:58:24;45.4;;;20.1;;
13057;SDS011;6595;49.578;11.012;2024-03-02T03:00:24;45.4;;;20.1;;
13057;SDS011;6595;49.578;11.012;2024-03-02T03:02:23;44.2;;;19.9;;
13057;SDS011;6595;49.578;11.012;2024-03-02T03:04:23;46.1;;;20.1;;
13057;SDS011;6595;49.578;11.012;2024-03-02T03:06:23;46.5;;;21.1;;
13057;SDS011;6595;49.578;11.012;2024-03-02T03:08:23;45.2;;;20.0;;
13057;SDS011;6595;49.578;11.012;2024-03-02T03:10:23;45.2;;;20.0;;
13057;SDS011;6595;49.578;11.012;2024-03-02T03:12:23;48.5;;;21.9;;
13057;SDS011;6595;49.578;11.012;2024-03-02T03:14:23;46.2;;;20.3;;
13057;SDS011;6595;49.578;11.012;2024-03-02T03:16:24;47.4;;;20.3;;
13057;SDS011;6595;49.578;11.012;2024-03-02T03:18:23;49.5;;;20.7;;
13057;SDS011;6595;49.578;11.012;2024-03-02T03:20:23;49.5;;;20.7;;
13057;SDS011;6595;49.578;11.012;2024-03-02T03:22:24;46.6;;;19.7;;
13057;SDS011;6595;49.578;11.012;2024-03-02T03:24:24;49.2;;;21.0;;
13057;SDS011;6595;49.578;11.012;2024-03-02T03:26:23;49.0;;;20.7;;
13057;SDS011;6595;49.578;11.012;2024-03-02T03:28:24;49.0;;;20.7;;
13057;SDS011;6595;49.578;11.012;2024-03-02T03:30:23;40.3;;;19.8;;
13057;SDS011;6595;49.578;11.012;2024-03-02T03:32:24;47.6;;;20.4;;
13057;SDS011;6595;49.578;11.012;2024-03-02T03:34:23;47.3;;;20.2;;
13057;SDS011;6595;49.578;11.012;2024-03-02T03:36:24;47.3;;;20.2;;
13057;SDS011;6595;49.578;11.012;2024-03-02T03:38:23;47.3;;;20.2;;
13057;SDS011;6595;49.578;11.012;2024-03-02T03:40:24;49.6;;;21.0;;
13057;SDS011;6595;49.578;11.012;2024-03-02T03:42:23;49.0;;;22.0;;
13057;SDS011;6595;49.578;11.012;2024-03-02T03:44:23;48.7;;;21.6;;
13057;SDS011;6595;49.578;11.012;2024-03-02T03:46:23;51.2;;;22.9;;
13057;SDS011;6595;49.578;11.012;2024-03-02T03:48:23;51.2;;;22.9;;
13057;SDS011;6595;49.578;11.012;2024-03-02T03:50:24;50.1;;;21.3;;
13057;SDS011;6595;49.578;11.012;2024-03-02T03:52:23;50.1;;;21.3;;
13057;SDS011;6595;49.578;11.012;2024-03-02T03:54:23;47.2;;;21.6;;
13057;SDS011;6595;49.578;11.012;2024-03-02T03:56:24;43.8;;;19.8;;
13057;SDS011;6595;49.578;11.012;2024-03-02T03:58:23;43.8;;;19.8;;
13057;SDS011;6595;49.578;11.012;2024-03-02T04:00:23;45.7;;;20.2;;
13057;SDS011;6595;49.578;11.012;2024-03-02T04:02:24;43.8;;;20.2;;
13057;SDS011;6595;49.578;11.012;2024-03-02T04:04:23;45.9;;;20.3;;
13057;SDS011;6595;49.578;11.012;2024-03-02T04:06:24;43.6;;;20.1;;
13057;SDS011;6595;49.578;11.012;2024-03-02T04:08:23;43.6;;;20.1;;
13057;SDS011;6595;49.578;11.012;2024-03-02T04:10:23;44.0;;;19.2;;
13057;SDS011;6595;49.578;11.012;2024-03-02T04:12:24;43.1;;;18.7;;
13057;SDS011;6595;49.578;11.012;2024-03-02T04:14:23;42.6;;;19.6;;
13057;SDS011;6595;49.578;11.012;2024-03-02T04:16:23;45.1;;;19.5;;
13057;SDS011;6595;49.578;11.012;2024-03-02T04:18:23;45.1;;;19.5;;
13057;SDS011;6595;49.578;11.012;2024-03-02T04:20:24;43.5;;;19.0;;
13057;SDS011;6595;49.578;11.012;2024-03-02T04:22:23;47.5;;;19.2;;
13057;SDS011;6595;49.578;11.012;2024-03-02T04:24:23;47.5;;;19.2;;
13057;SDS011;6595;49.578;11.012;2024-03-02T04:26:23;43.9;;;19.4;;
13057;SDS011;6595;49.578;11.012;2024-03-02T04:28:23;43.3;;;19.0;;
13057;SDS011;6595;49.578;11.012;2024-03-02T04:30:23;40.0;;;18.6;;
13057;SDS011;6595;49.578;11.012;2024-03-02T04:32:24;38.2;;;19.0;;
13057;SDS011;6595;49.578;11.012;2024-03-02T04:34:23;38.2;;;19.0;;
13057;SDS011;6595;49.578;11.012;2024-03-02T04:36:23;41.1;;;18.0;;
13057;SDS011;6595;49.578;11.012;2024-03-02T04:38:23;43.0;;;19.2;;
13057;SDS011;6595;49.578;11.012;2024-03-02T04:40:23;44.6;;;18.8;;
13057;SDS011;6595;49.578;11.012;2024-03-02T04:42:23;38.5;;;18.2;;
13057;SDS011;6595;49.578;11.012;2024-03-02T04:44:24;38.5;;;18.2;;
13057;SDS011;6595;49.578;11.012;2024-03-02T04:46:23;39.6;;;18.0;;
13057;SDS011;6595;49.578;11.012;2024-03-02T04:48:23;42.2;;;17.8;;
13057;SDS011;6595;49.578;11.012;2024-03-02T04:50:24;40.6;;;17.6;;
13057;SDS011;6595;49.578;11.012;2024-03-02T04:52:23;40.6;;;17.6;;
13057;SDS011;6595;49.578;11.012;2024-03-02T04:54:23;36.0;;;17.8;;
13057;SDS011;6595;49.578;11.012;2024-03-02T04:56:24;36.0;;;17.8;;
13057;SDS011;6595;49.578;11.012;2024-03-02T04:58:23;39.3;;;17.8;;
13057;SDS011;6595;49.578;11.012;2024-03-02T05:00:23;40.1;;;16.9;;
13057;SDS011;6595;49.578;11.012;2024-03-02T05:02:24;39.2;;;17.9;;
13057;SDS011;6595;49.578;11.012;2024-03-02T05:04:23;35.0;;;17.0;;
13057;SDS011;6595;49.578;11.012;2024-03-02T05:06:23;35.0;;;17.0;;
13057;SDS011;6595;49.578;11.012;2024-03-02T05:08:24;39.9;;;17.9;;
13057;SDS011;6595;49.578;11.012;2024-03-02T05:10:23;39.7;;;17.6;;
13057;SDS011;6595;49.578;11.012;2024-03-02T05:12:24;39.7;;;17.6;;
13057;SDS011;6595;49.578;11.012;2024-03-02T05:14:23;35.9;;;17.0;;
13057;SDS011;6595;49.578;11.012;2024-03-02T05:16:23;35.9;;;17.0;;
13057;SDS011;6595;49.578;11.012;2024-03-02T05:18:23;36.0;;;16.2;;
13057;SDS011;6595;49.578;11.012;2024-03-02T05:20:23;33.9;;;15.8;;
13057;SDS011;6595;49.578;11.012;2024-03-02T05:22:24;38.9;;;17.6;;
13057;SDS011;6595;49.578;11.012;2024-03-02T05:24:23;36.1;;;16.7;;
13057;SDS011;6595;49.578;11.012;2024-03-02T05:26:23;36.1;;;16.7;;
13057;SDS011;6595;49.578;11.012;2024-03-02T05:28:23;35.5;;;16.8;;
13057;SDS011;6595;49.578;11.012;2024-03-02T05:30:23;35.5;;;16.8;;
13057;SDS011;6595;49.578;11.012;2024-03-02T05:32:23;35.8;;;16.3;;
13057;SDS011;6595;49.578;11.012;2024-03-02T05:34:24;35.8;;;16.3;;
13057;SDS011;6595;49.578;11.012;2024-03-02T05:36:23;34.9;;;16.5;;
13057;SDS011;6595;49.578;11.012;2024-03-02T05:38:24;36.1;;;17.3;;
13057;SDS011;6595;49.578;11.012;2024-03-02T05:40:24;34.6;;;16.8;;
13057;SDS011;6595;49.578;11.012;2024-03-02T05:42:23;34.1;;;15.6;;
13057;SDS011;6595;49.578;11.012;2024-03-02T05:44:23;34.1;;;15.6;;
13057;SDS011;6595;49.578;11.012;2024-03-02T05:46:24;33.8;;;16.2;;
13057;SDS011;6595;49.578;11.012;2024-03-02T05:48:23;35.0;;;15.7;;
13057;SDS011;6595;49.578;11.012;2024-03-02T05:50:23;37.7;;;16.6;;
13057;SDS011;6595;49.578;11.012;2024-03-02T05:52:23;37.3;;;16.5;;
13057;SDS011;6595;49.578;11.012;2024-03-02T05:54:24;37.3;;;16.5;;
13057;SDS011;6595;49.578;11.012;2024-03-02T05:56:23;38.6;;;15.8;;
13057;SDS011;6595;49.578;11.012;2024-03-02T05:58:24;35.9;;;16.4;;
13057;SDS011;6595;49.578;11.012;2024-03-02T06:00:23;35.5;;;15.3;;
13057;SDS011;6595;49.578;11.012;2024-03-02T06:02:23;36.6;;;15.6;;
13057;SDS011;6595;49.578;11.012;2024-03-02T06:04:24;36.6;;;15.6;;
13057;SDS011;6595;49.578;11.012;2024-03-02T06:06:23;36.9;;;15.7;;
13057;SDS011;6595;49.578;11.012;2024-03-02T06:08:23;36.9;;;15.7;;
13057;SDS011;6595;49.578;11.012;2024-03-02T06:10:24;35.8;;;15.3;;
13057;SDS011;6595;49.578;11.012;2024-03-02T06:12:23;36.2;;;16.0;;
13057;SDS011;6595;49.578;11.012;2024-03-02T06:14:23;35.5;;;15.8;;
13057;SDS011;6595;49.578;11.012;2024-03-02T06:16:24;34.8;;;15.8;;
13057;SDS011;6595;49.578;11.012;2024-03-02T06:18:23;34.7;;;15.7;;
13057;SDS011;6595;49.578;11.012;2024-03-02T06:20:23;37.6;;;15.5;;
13057;SDS011;6595;49.578;11.012;2024-03-02T06:22:23;37.6;;;15.5;;
13057;SDS011;6595;49.578;11.012;2024-03-02T06:24:23;30.5;;;13.9;;
13057;SDS011;6595;49.578;11.012;2024-03-02T06:26:24;35.8;;;15.2;;
13057;SDS011;6595;49.578;11.012;2024-03-02T06:28:23;35.4;;;15.7;;
13057;SDS011;6595;49.578;11.012;2024-03-02T06:30:23;35.4;;;15.7;;
13057;SDS011;6595;49.578;11.012;2024-03-02T06:32:24;31.8;;;14.6;;
13057;SDS011;6595;49.578;11.012;2024-03-02T06:34:23;31.8;;;14.6;;
13057;SDS011;6595;49.578;11.012;2024-03-02T06:36:24;33.5;;;15.4;;
13057;SDS011;6595;49.578;11.012;2024-03-02T06:38:23;32.6;;;14.5;;
13057;SDS011;6595;49.578;11.012;2024-03-02T06:40:23;35.2;;;15.8;;
13057;SDS011;6595;49.578;11.012;2024-03-02T06:42:24;35.2;;;15.8;;
13057;SDS011;6595;49.578;11.012;2024-03-02T06:44:23;35.8;;;14.8;;
13057;SDS011;6595;49.578;11.012;2024-03-02T06:46:23;32.6;;;14.7;;
13057;SDS011;6595;49.578;11.012;2024-03-02T06:48:23;32.6;;;14.7;;
13057;SDS011;6595;49.578;11.012;2024-03-02T06:50:23;34.4;;;14.8;;
13057;SDS011;6595;49.578;11.012;2024-03-02T06:52:23;34.4;;;14.8;;
13057;SDS011;6595;49.578;11.012;2024-03-02T06:54:23;39.6;;;14.6;;
13057;SDS011;6595;49.578;11.012;2024-03-02T06:56:23;34.1;;;15.2;;
13057;SDS011;6595;49.578;11.012;2024-03-02T06:58:24;32.6;;;15.9;;
13057;SDS011;6595;49.578;11.012;2024-03-02T07:00:24;33.7;;;15.2;;
13057;SDS011;6595;49.578;11.012;2024-03-02T07:02:23;33.7;;;15.2;;
13057;SDS011;6595;49.578;11.012;2024-03-02T07:04:23;32.5;;;15.1;;
13057;SDS011;6595;49.578;11.012;2024-03-02T07:06:23;33.8;;;15.0;;
13057;SDS011;6595;49.578;11.012;2024-03-02T07:08:23;32.9;;;15.4;;
13057;SDS011;6595;49.578;11.012;2024-03-02T07:10:23;32.9;;;15.4;;
13057;SDS011;6595;49.578;11.012;2024-03-02T07:12:23;32.9;;;15.4;;
13057;SDS011;6595;49.578;11.012;2024-03-02T07:14:23;35.3;;;15.0;;
13057;SDS011;6595;49.578;11.012;2024-03-02T07:16:23;34.3;;;15.0;;
13057;SDS011;6595;49.578;11.012;2024-03-02T07:18:23;34.3;;;16.2;;
13057;SDS011;6595;49.578;11.012;2024-03-02T07:20:23;34.3;;;16.2;;
13057;SDS011;6595;49.578;11.012;2024-03-02T07:22:24;34.8;;;15.5;;
13057;SDS011;6595;49.578;11.012;2024-03-02T07:24:23;32.1;;;14.4;;
13057;SDS011;6595;49.578;11.012;2024-03-02T07:26:23;32.8;;;14.9;;
13057;SDS011;6595;49.578;11.012;2024-03-02T07:28:24;31.5;;;15.0;;
13057;SDS011;6595;49.578;11.012;2024-03-02T07:30:24;31.5;;;15.0;;
13057;SDS011;6595;49.578;11.012;2024-03-02T07:32:23;29.3;;;14.1;;
13057;SDS011;6595;49.578;11.012;2024-03-02T07:34:23;33.8;;;14.6;;
13057;SDS011;6595;49.578;11.012;2024-03-02T07:36:23;30.0;;;15.1;;
13057;SDS011;6595;49.578;11.012;2024-03-02T07:38:23;30.1;;;14.8;;
13057;SDS011;6595;49.578;11.012;2024-03-02T07:40:23;30.1;;;14.8;;
13057;SDS011;6595;49.578;11.012;2024-03-02T07:42:23;30.1;;;14.5;;
13057;SDS011;6595;49.578;11.012;2024-03-02T07:44:23;30.1;;;14.3;;
13057;SDS011;6595;49.578;11.012;2024-03-02T07:46:24;30.1;;;14.3;;
13057;SDS011;6595;49.578;11.012;2024-03-02T07:48:23;29.7;;;13.9;;
13057;SDS011;6595;49.578;11.012;2024-03-02T07:50:24;29.1;;;13.6;;
13057;SDS011;6595;49.578;11.012;2024-03-02T07:52:23;31.8;;;14.3;;
13057;SDS011;6595;49.578;11.012;2024-03-02T07:54:23;27.0;;;13.8;;
13057;SDS011;6595;49.578;11.012;2024-03-02T07:56:24;27.5;;;13.3;;
13057;SDS011;6595;49.578;11.012;2024-03-02T07:58:24;29.4;;;13.9;;
13057;SDS011;6595;49.578;11.012;2024-03-02T08:00:23;29.4;;;13.9;;
13057;SDS011;6595;49.578;11.012;2024-03-02T08:02:23;26.8;;;13.5;;
13057;SDS011;6595;49.578;11.012;2024-03-02T08:04:23;28.0;;;14.5;;
13057;SDS011;6595;49.578;11.012;2024-03-02T08:06:23;26.1;;;14.1;;
13057;SDS011;6595;49.578;11.012;2024-03-02T08:08:24;26.1;;;14.1;;
13057;SDS011;6595;49.578;11.012;2024-03-02T08:10:23;28.4;;;13.8;;
13057;SDS011;6595;49.578;11.012;2024-03-02T08:12:23;28.9;;;13.6;;
13057;SDS011;6595;49.578;11.012;2024-03-02T08:14:24;26.0;;;13.4;;
13057;SDS011;6595;49.578;11.012;2024-03-02T08:16:23;27.0;;;14.1;;
13057;SDS011;6595;49.578;11.012;2024-03-02T08:18:23;27.0;;;14.1;;
13057;SDS011;6595;49.578;11.012;2024-03-02T08:20:23;26.6;;;13.2;;
13057;SDS011;6595;49.578;11.012;2024-03-02T08:22:24;27.4;;;13.4;;
13057;SDS011;6595;49.578;11.012;2024-03-02T08:24:24;25.4;;;13.5;;
13057;SDS011;6595;49.578;11.012;2024-03-02T08:26:23;25.4;;;13.5;;
13057;SDS011;6595;49.578;11.012;2024-03-02T08:28:23;25.4;;;13.5;;
13057;SDS011;6595;49.578;11.012;2024-03-02T08:30:24;23.3;;;12.0;;
13057;SDS011;6595;49.578;11.012;2024-03-02T08:32:23;25.4;;;12.9;;
13057;SDS011;6595;49.578;11.012;2024-03-02T08:34:23;25.4;;;12.9;;
13057;SDS011;6595;49.578;11.012;2024-03-02T08:36:23;25.8;;;12.7;;
13057;SDS011;6595;49.578;11.012;2024-03-02T08:38:23;25.8;;;12.7;;
13057;SDS011;6595;49.578;11.012;2024-03-02T08:40:23;26.7;;;13.2;;
13057;SDS011;6595;49.578;11.012;2024-03-02T08:42:23;23.8;;;11.8;;
13057;SDS011;6595;49.578;11.012;2024-03-02T08:44:24;25.3;;;12.5;;
13057;SDS011;6595;49.578;11.012;2024-03-02T08:46:23;25.3;;;12.5;;
13057;SDS011;6595;49.578;11.012;2024-03-02T08:48:23;24.1;;;11.8;;
13057;SDS011;6595;49.578;11.012;2024-03-02T08:50:23;24.7;;;12.8;;
13057;SDS011;6595;49.578;11.012;2024-03-02T08:52:23;24.6;;;12.1;;
13057;SDS011;6595;49.578;11.012;2024-03-02T08:54:24;25.8;;;12.1;;
13057;SDS011;6595;49.578;11.012;2024-03-02T08:56:23;25.8;;;12.1;;
13057;SDS011;6595;49.578;11.012;2024-03-02T08:58:23;22.9;;;11.8;;
13057;SDS011;6595;49.578;11.012;2024-03-02T09:00:23;23.8;;;11.8;;
13057;SDS011;6595;49.578;11.012;2024-03-02T09:02:24;22.5;;;11.7;;
13057;SDS011;6595;49.578;11.012;2024-03-02T09:04:23;22.9;;;11.3;;
13057;SDS011;6595;49.578;11.012;2024-03-02T09:06:23;22.9;;;11.3;;
13057;SDS011;6595;49.578;11.012;2024-03-02T09:08:24;21.3;;;11.0;;
13057;SDS011;6595;49.578;11.012;2024-03-02T09:10:23;23.0;;;11.4;;
13057;SDS011;6595;49.578;11.012;2024-03-02T09:12:23;23.0;;;11.4;;
13057;SDS011;6595;49.578;11.012;2024-03-02T09:16:23;21.1;;;11.0;;
13057;SDS011;6595;49.578;11.012;2024-03-02T09:18:23;20.4;;;10.9;;
13057;SDS011;6595;49.578;11.012;2024-03-02T09:20:24;18.4;;;9.8;;
13057;SDS011;6595;49.578;11.012;2024-03-02T09:22:24;17.9;;;10.4;;
13057;SDS011;6595;49.578;11.012;2024-03-02T09:24:23;17.9;;;10.4;;
13057;SDS011;6595;49.578;11.012;2024-03-02T09:26:23;17.8;;;9.4;;
13057;SDS011;6595;49.578;11.012;2024-03-02T09:28:24;17.0;;;9.4;;
13057;SDS011;6595;49.578;11.012;2024-03-02T09:30:24;16.2;;;8.8;;
13057;SDS011;6595;49.578;11.012;2024-03-02T09:32:23;15.4;;;8.5;;
13057;SDS011;6595;49.578;11.012;2024-03-02T09:34:24;15.4;;;8.5;;
13057;SDS011;6595;49.578;11.012;2024-03-02T09:36:24;15.2;;;8.6;;
13057;SDS011;6595;49.578;11.012;2024-03-02T09:38:23;15.2;;;8.3;;
13057;SDS011;6595;49.578;11.012;2024-03-02T09:40:23;14.5;;;7.8;;
13057;SDS011;6595;49.578;11.012;2024-03-02T09:42:23;16.2;;;8.7;;
13057;SDS011;6595;49.578;11.012;2024-03-02T09:44:24;13.7;;;8.5;;
13057;SDS011;6595;49.578;11.012;2024-03-02T09:46:23;13.7;;;8.5;;
13057;SDS011;6595;49.578;11.012;2024-03-02T09:48:23;15.8;;;8.0;;
13057;SDS011;6595;49.578;11.012;2024-03-02T09:50:23;13.7;;;7.8;;
13057;SDS011;6595;49.578;11.012;2024-03-02T09:52:24;13.7;;;7.8;;
13057;SDS011;6595;49.578;11.012;2024-03-02T09:54:23;13.7;;;7.8;;
13057;SDS011;6595;49.578;11.012;2024-03-02T09:56:23;12.1;;;7.3;;
13057;SDS011;6595;49.578;11.012;2024-03-02T09:58:24;12.0;;;6.9;;
13057;SDS011;6595;49.578;11.012;2024-03-02T10:00:23;11.0;;;7.0;;
13057;SDS011;6595;49.578;11.012;2024-03-02T10:02:23;11.2;;;7.3;;
13057;SDS011;6595;49.578;11.012;2024-03-02T10:04:23;11.2;;;7.3;;
13057;SDS011;6595;49.578;11.012;2024-03-02T10:06:24;12.2;;;7.5;;
13057;SDS011;6595;49.578;11.012;2024-03-02T10:08:23;12.2;;;7.5;;
13057;SDS011;6595;49.578;11.012;2024-03-02T10:10:24;11.7;;;6.9;;
13057;SDS011;6595;49.578;11.012;2024-03-02T10:12:23;11.2;;;6.9;;
13057;SDS011;6595;49.578;11.012;2024-03-02T10:14:23;11.2;;;6.9;;
13057;SDS011;6595;49.578;11.012;2024-03-02T10:16:23;11.5;;;6.8;;
13057;SDS011;6595;49.578;11.012;2024-03-02T10:18:26;10.9;;;6.9;;
13057;SDS011;6595;49.578;11.012;2024-03-02T10:20:23;11.0;;;6.8;;
13057;SDS011;6595;49.578;11.012;2024-03-02T10:22:23;11.0;;;6.8;;
13057;SDS011;6595;49.578;11.012;2024-03-02T10:24:24;11.8;;;6.8;;
13057;SDS011;6595;49.578;11.012;2024-03-02T10:26:24;11.8;;;6.8;;
13057;SDS011;6595;49.578;11.012;2024-03-02T10:28:23;10.9;;;6.4;;
13057;SDS011;6595;49.578;11.012;2024-03-02T10:30:23;10.9;;;6.4;;
13057;SDS011;6595;49.578;11.012;2024-03-02T10:32:23;13.0;;;7.8;;
13057;SDS011;6595;49.578;11.012;2024-03-02T10:34:23;11.4;;;7.5;;
13057;SDS011;6595;49.578;11.012;2024-03-02T10:36:23;11.5;;;7.0;;
13057;SDS011;6595;49.578;11.012;2024-03-02T10:38:23;11.5;;;7.0;;
13057;SDS011;6595;49.578;11.012;2024-03-02T10:40:23;11.6;;;7.0;;
13057;SDS011;6595;49.578;11.012;2024-03-02T10:42:23;11.6;;;7.0;;
13057;SDS011;6595;49.578;11.012;2024-03-02T10:44:23;12.0;;;7.0;;
13057;SDS011;6595;49.578;11.012;2024-03-02T10:46:24;11.7;;;7.1;;
13057;SDS011;6595;49.578;11.012;2024-03-02T10:48:23;12.2;;;7.6;;
13057;SDS011;6595;49.578;11.012;2024-03-02T10:50:23;12.2;;;7.6;;
13057;SDS011;6595;49.578;11.012;2024-03-02T10:52:23;13.3;;;7.4;;
13057;SDS011;6595;49.578;11.012;2024-03-02T10:54:24;12.1;;;7.6;;
13057;SDS011;6595;49.578;11.012;2024-03-02T10:56:28;12.0;;;7.3;;
13057;SDS011;6595;49.578;11.012;2024-03-02T10:58:23;11.5;;;7.2;;
13057;SDS011;6595;49.578;11.012;2024-03-02T11:00:24;11.4;;;7.2;;
13057;SDS011;6595;49.578;11.012;2024-03-02T11:02:24;11.4;;;7.2;;
13057;SDS011;6595;49.578;11.012;2024-03-02T11:04:23;11.7;;;6.9;;
13057;SDS011;6595;49.578;11.012;2024-03-02T11:06:23;11.8;;;6.7;;
13057;SDS011;6595;49.578;11.012;2024-03-02T11:08:24;11.5;;;7.0;;
13057;SDS011;6595;49.578;11.012;2024-03-02T11:10:24;11.5;;;7.0;;
13057;SDS011;6595;49.578;11.012;2024-03-02T11:12:25;11.3;;;6.7;;
13057;SDS011;6595;49.578;11.012;2024-03-02T11:14:24;11.0;;;6.7;;
13057;SDS011;6595;49.578;11.012;2024-03-02T11:16:27;10.3;;;6.3;;
13057;SDS011;6595;49.578;11.012;2024-03-02T11:18:23;11.9;;;7.4;;
13057;SDS011;6595;49.578;11.012;2024-03-02T11:20:23;11.9;;;7.4;;
13057;SDS011;6595;49.578;11.012;2024-03-02T11:22:23;11.9;;;7.1;;
13057;SDS011;6595;49.578;11.012;2024-03-02T11:24:31;11.8;;;6.9;;
13057;SDS011;6595;49.578;11.012;2024-03-02T11:26:23;13.2;;;7.5;;
13057;SDS011;6595;49.578;11.012;2024-03-02T11:28:34;13.2;;;7.5;;
13057;SDS011;6595;49.578;11.012;2024-03-02T11:32:24;12.0;;;7.7;;
13057;SDS011;6595;49.578;11.012;2024-03-02T11:34:28;12.8;;;8.1;;
13057;SDS011;6595;49.578;11.012;2024-03-02T11:36:23;12.8;;;8.1;;
13057;SDS011;6595;49.578;11.012;2024-03-02T11:38:27;11.0;;;7.2;;
13057;SDS011;6595;49.578;11.012;2024-03-02T11:40:24;11.0;;;7.2;;
13057;SDS011;6595;49.578;11.012;2024-03-02T11:42:23;12.3;;;7.5;;
13057;SDS011;6595;49.578;11.012;2024-03-02T11:44:24;13.8;;;8.1;;
13057;SDS011;6595;49.578;11.012;2024-03-02T11:46:23;13.6;;;8.3;;
13057;SDS011;6595;49.578;11.012;2024-03-02T11:48:23;13.6;;;8.3;;
13057;SDS011;6595;49.578;11.012;2024-03-02T11:50:28;14.0;;;8.3;;
13057;SDS011;6595;49.578;11.012;2024-03-02T11:52:23;12.9;;;8.4;;
13057;SDS011;6595;49.578;11.012;2024-03-02T11:54:23;12.9;;;8.4;;
13057;SDS011;6595;49.578;11.012;2024-03-02T11:56:24;12.8;;;8.5;;
13057;SDS011;6595;49.578;11.012;2024-03-02T11:58:23;12.8;;;8.5;;
13057;SDS011;6595;49.578;11.012;2024-03-02T12:00:23;12.3;;;8.4;;
13057;SDS011;6595;49.578;11.012;2024-03-02T12:02:23;13.2;;;8.7;;
13057;SDS011;6595;49.578;11.012;2024-03-02T12:04:23;13.2;;;8.7;;
13057;SDS011;6595;49.578;11.012;2024-03-02T12:06:24;11.7;;;8.0;;
13057;SDS011;6595;49.578;11.012;2024-03-02T12:08:23;11.7;;;8.0;;